sensor_id;sensor_type;location;lat;lon;timestamp;P1;durP1;ratioP1;P2;durP2;ratioP2
7444;SDS011;3764;48.126;11.594;2024-02-16T00:00:07;6.30;;;4.88;;
7444;SDS011;3764;48.126;11.594;2024-02-16T00:02:36;6.45;;;5.80;;
7444;SDS011;3764;48.126;11.594;2024-02-16T00:05:04;11.27;;;5.88;;
7444;SDS011;3764;48.126;11.594;2024-02-16T00:07:34;6.15;;;4.80;;
7444;SDS011;3764;48.126;11.594;2024-02-16T00:10:02;8.57;;;5.47;;
7444;SDS011;3764;48.126;11.594;2024-02-16T00:12:30;6.70;;;4.55;;
7444;SDS011;3764;48.126;11.594;2024-02-16T00:14:59;7.30;;;5.25;;
7444;SDS011;3764;48.126;11.594;2024-02-16T00:17:26;6.70;;;5.15;;
7444;SDS011;3764;48.126;11.594;2024-02-16T00:19:54;10.30;;;5.32;;
7444;SDS011;3764;48.126;11.594;2024-02-16T00:22:22;8.30;;;4.85;;
7444;SDS011;3764;48.126;11.594;2024-02-16T00:24:51;9.85;;;5.10;;
7444;SDS011;3764;48.126;11.594;2024-02-16T00:27:18;5.97;;;4.72;;
7444;SDS011;3764;48.126;11.594;2024-02-16T00:29:46;5.40;;;4.78;;
7444;SDS011;3764;48.126;11.594;2024-02-16T00:32:13;6.97;;;4.93;;
7444;SDS011;3764;48.126;11.594;2024-02-16T00:34:41;5.60;;;5.00;;
7444;SDS011;3764;48.126;11.594;2024-02-16T00:37:08;10.75;;;4.75;;
7444;SDS011;3764;48.126;11.594;2024-02-16T00:39:37;7.43;;;4.75;;
7444;SDS011;3764;48.126;11.594;2024-02-16T00:42:06;6.75;;;5.10;;
7444;SDS011;3764;48.126;11.594;2024-02-16T00:44:34;7.45;;;4.47;;
7444;SDS011;3764;48.126;11.594;2024-02-16T00:47:00;7.28;;;4.90;;
7444;SDS011;3764;48.126;11.594;2024-02-16T00:49:28;6.30;;;5.70;;
7444;SDS011;3764;48.126;11.594;2024-02-16T00:51:56;5.63;;;5.05;;
7444;SDS011;3764;48.126;11.594;2024-02-16T00:54:24;6.90;;;4.72;;
7444;SDS011;3764;48.126;11.594;2024-02-16T00:56:51;8.93;;;5.78;;
7444;SDS011;3764;48.126;11.594;2024-02-16T00:59:21;6.72;;;5.95;;
7444;SDS011;3764;48.126;11.594;2024-02-16T01:01:49;7.57;;;5.07;;
7444;SDS011;3764;48.126;11.594;2024-02-16T01:04:16;6.70;;;4.68;;
7444;SDS011;3764;48.126;11.594;2024-02-16T01:06:43;7.10;;;5.50;;
7444;SDS011;3764;48.126;11.594;2024-02-16T01:09:11;7.03;;;5.57;;
7444;SDS011;3764;48.126;11.594;2024-02-16T01:11:40;6.38;;;4.97;;
7444;SDS011;3764;48.126;11.594;2024-02-16T01:14:08;7.57;;;5.90;;
7444;SDS011;3764;48.126;11.594;2024-02-16T01:16:36;7.38;;;5.97;;
7444;SDS011;3764;48.126;11.594;2024-02-16T01:19:03;6.40;;;4.90;;
7444;SDS011;3764;48.126;11.594;2024-02-16T01:21:32;8.48;;;6.00;;
7444;SDS011;3764;48.126;11.594;2024-02-16T01:24:00;6.88;;;5.95;;
7444;SDS011;3764;48.126;11.594;2024-02-16T01:26:27;8.05;;;6.55;;
7444;SDS011;3764;48.126;11.594;2024-02-16T01:28:55;9.63;;;5.90;;
7444;SDS011;3764;48.126;11.594;2024-02-16T01:31:23;10.60;;;6.47;;
7444;SDS011;3764;48.126;11.594;2024-02-16T01:33:52;6.60;;;5.78;;
7444;SDS011;3764;48.126;11.594;2024-02-16T01:36:19;8.60;;;6.50;;
7444;SDS011;3764;48.126;11.594;2024-02-16T01:38:46;8.68;;;6.35;;
7444;SDS011;3764;48.126;11.594;2024-02-16T01:41:13;8.38;;;5.05;;
7444;SDS011;3764;48.126;11.594;2024-02-16T01:43:41;7.13;;;5.95;;
7444;SDS011;3764;48.126;11.594;2024-02-16T01:46:08;8.48;;;5.93;;
7444;SDS011;3764;48.126;11.594;2024-02-16T01:48:35;6.53;;;5.88;;
7444;SDS011;3764;48.126;11.594;2024-02-16T01:51:06;13.13;;;6.40;;
7444;SDS011;3764;48.126;11.594;2024-02-16T01:53:34;7.57;;;5.70;;
7444;SDS011;3764;48.126;11.594;2024-02-16T01:56:02;8.05;;;5.30;;
7444;SDS011;3764;48.126;11.594;2024-02-16T01:58:30;5.15;;;4.70;;
7444;SDS011;3764;48.126;11.594;2024-02-16T02:00:58;7.28;;;5.55;;
7444;SDS011;3764;48.126;11.594;2024-02-16T02:03:25;7.82;;;5.18;;
7444;SDS011;3764;48.126;11.594;2024-02-16T02:05:52;8.07;;;6.13;;
7444;SDS011;3764;48.126;11.594;2024-02-16T02:08:23;6.75;;;5.28;;
7444;SDS011;3764;48.126;11.594;2024-02-16T02:10:52;6.70;;;5.80;;
7444;SDS011;3764;48.126;11.594;2024-02-16T02:13:19;7.25;;;5.57;;
7444;SDS011;3764;48.126;11.594;2024-02-16T02:15:47;7.03;;;5.80;;
7444;SDS011;3764;48.126;11.594;2024-02-16T02:18:14;6.80;;;5.15;;
7444;SDS011;3764;48.126;11.594;2024-02-16T02:20:41;5.82;;;5.07;;
7444;SDS011;3764;48.126;11.594;2024-02-16T02:23:10;7.43;;;4.70;;
7444;SDS011;3764;48.126;11.594;2024-02-16T02:25:38;5.47;;;4.95;;
7444;SDS011;3764;48.126;11.594;2024-02-16T02:28:05;7.53;;;6.40;;
7444;SDS011;3764;48.126;11.594;2024-02-16T02:30:33;10.80;;;5.40;;
7444;SDS011;3764;48.126;11.594;2024-02-16T02:33:00;7.05;;;5.93;;
7444;SDS011;3764;48.126;11.594;2024-02-16T02:35:28;8.80;;;5.40;;
7444;SDS011;3764;48.126;11.594;2024-02-16T02:37:55;8.13;;;5.82;;
7444;SDS011;3764;48.126;11.594;2024-02-16T02:40:23;6.88;;;5.65;;
7444;SDS011;3764;48.126;11.594;2024-02-16T02:42:51;6.80;;;5.65;;
7444;SDS011;3764;48.126;11.594;2024-02-16T02:45:18;6.80;;;5.65;;
7444;SDS011;3764;48.126;11.594;2024-02-16T02:47:46;6.25;;;5.65;;
7444;SDS011;3764;48.126;11.594;2024-02-16T02:50:13;6.63;;;5.38;;
7444;SDS011;3764;48.126;11.594;2024-02-16T02:52:40;7.88;;;5.18;;
7444;SDS011;3764;48.126;11.594;2024-02-16T02:55:10;6.30;;;5.40;;
7444;SDS011;3764;48.126;11.594;2024-02-16T02:57:39;7.05;;;5.97;;
7444;SDS011;3764;48.126;11.594;2024-02-16T03:00:06;8.18;;;5.47;;
7444;SDS011;3764;48.126;11.594;2024-02-16T03:02:36;5.53;;;5.03;;
7444;SDS011;3764;48.126;11.594;2024-02-16T03:05:04;8.90;;;7.25;;
7444;SDS011;3764;48.126;11.594;2024-02-16T03:07:32;8.32;;;4.97;;
7444;SDS011;3764;48.126;11.594;2024-02-16T03:09:59;6.20;;;5.60;;
7444;SDS011;3764;48.126;11.594;2024-02-16T03:12:27;6.40;;;5.45;;
7444;SDS011;3764;48.126;11.594;2024-02-16T03:14:55;5.35;;;4.85;;
7444;SDS011;3764;48.126;11.594;2024-02-16T03:17:22;8.43;;;5.93;;
7444;SDS011;3764;48.126;11.594;2024-02-16T03:19:50;5.68;;;4.60;;
7444;SDS011;3764;48.126;11.594;2024-02-16T03:22:17;6.05;;;5.40;;
7444;SDS011;3764;48.126;11.594;2024-02-16T03:24:44;6.75;;;5.32;;
7444;SDS011;3764;48.126;11.594;2024-02-16T03:27:13;6.78;;;5.25;;
7444;SDS011;3764;48.126;11.594;2024-02-16T03:29:40;8.75;;;6.53;;
7444;SDS011;3764;48.126;11.594;2024-02-16T03:32:09;6.10;;;5.20;;
7444;SDS011;3764;48.126;11.594;2024-02-16T03:34:36;7.05;;;5.20;;
7444;SDS011;3764;48.126;11.594;2024-02-16T03:37:04;9.23;;;5.55;;
7444;SDS011;3764;48.126;11.594;2024-02-16T03:39:31;10.38;;;5.20;;
7444;SDS011;3764;48.126;11.594;2024-02-16T03:41:58;8.50;;;6.03;;
7444;SDS011;3764;48.126;11.594;2024-02-16T03:44:26;8.88;;;6.10;;
7444;SDS011;3764;48.126;11.594;2024-02-16T03:46:53;7.50;;;5.75;;
7444;SDS011;3764;48.126;11.594;2024-02-16T03:49:22;9.60;;;6.25;;
7444;SDS011;3764;48.126;11.594;2024-02-16T03:51:49;6.15;;;5.03;;
7444;SDS011;3764;48.126;11.594;2024-02-16T03:54:16;7.68;;;4.78;;
7444;SDS011;3764;48.126;11.594;2024-02-16T03:56:43;7.55;;;4.45;;
7444;SDS011;3764;48.126;11.594;2024-02-16T03:59:11;7.10;;;4.25;;
7444;SDS011;3764;48.126;11.594;2024-02-16T04:01:38;6.18;;;4.68;;
7444;SDS011;3764;48.126;11.594;2024-02-16T04:04:07;6.70;;;4.63;;
7444;SDS011;3764;48.126;11.594;2024-02-16T04:06:35;6.90;;;5.22;;
7444;SDS011;3764;48.126;11.594;2024-02-16T04:09:03;7.15;;;4.85;;
7444;SDS011;3764;48.126;11.594;2024-02-16T04:11:31;4.80;;;4.28;;
7444;SDS011;3764;48.126;11.594;2024-02-16T04:13:58;6.40;;;4.60;;
7444;SDS011;3764;48.126;11.594;2024-02-16T04:16:26;8.52;;;5.03;;
7444;SDS011;3764;48.126;11.594;2024-02-16T04:18:53;6.10;;;4.45;;
7444;SDS011;3764;48.126;11.594;2024-02-16T04:21:21;4.18;;;3.78;;
7444;SDS011;3764;48.126;11.594;2024-02-16T04:23:50;7.20;;;3.95;;
7444;SDS011;3764;48.126;11.594;2024-02-16T04:26:17;5.07;;;4.40;;
7444;SDS011;3764;48.126;11.594;2024-02-16T04:28:45;5.28;;;3.75;;
7444;SDS011;3764;48.126;11.594;2024-02-16T04:31:12;3.90;;;3.30;;
7444;SDS011;3764;48.126;11.594;2024-02-16T04:33:39;3.85;;;3.50;;
7444;SDS011;3764;48.126;11.594;2024-02-16T04:36:07;4.15;;;3.40;;
7444;SDS011;3764;48.126;11.594;2024-02-16T04:38:35;8.55;;;3.72;;
7444;SDS011;3764;48.126;11.594;2024-02-16T04:41:04;4.75;;;3.05;;
7444;SDS011;3764;48.126;11.594;2024-02-16T04:43:32;6.72;;;4.00;;
7444;SDS011;3764;48.126;11.594;2024-02-16T04:45:59;5.05;;;4.22;;
7444;SDS011;3764;48.126;11.594;2024-02-16T04:48:26;4.47;;;3.65;;
7444;SDS011;3764;48.126;11.594;2024-02-16T04:50:54;4.22;;;3.15;;
7444;SDS011;3764;48.126;11.594;2024-02-16T04:53:21;5.43;;;3.53;;
7444;SDS011;3764;48.126;11.594;2024-02-16T04:55:48;6.00;;;3.22;;
7444;SDS011;3764;48.126;11.594;2024-02-16T04:58:17;3.00;;;2.63;;
7444;SDS011;3764;48.126;11.594;2024-02-16T05:00:44;3.10;;;2.70;;
7444;SDS011;3764;48.126;11.594;2024-02-16T05:03:12;3.97;;;3.15;;
7444;SDS011;3764;48.126;11.594;2024-02-16T05:05:40;3.05;;;2.40;;
7444;SDS011;3764;48.126;11.594;2024-02-16T05:08:07;5.30;;;2.80;;
7444;SDS011;3764;48.126;11.594;2024-02-16T05:10:34;3.08;;;2.78;;
7444;SDS011;3764;48.126;11.594;2024-02-16T05:13:02;3.40;;;2.75;;
7444;SDS011;3764;48.126;11.594;2024-02-16T05:15:31;3.25;;;2.90;;
7444;SDS011;3764;48.126;11.594;2024-02-16T05:17:58;3.80;;;3.20;;
7444;SDS011;3764;48.126;11.594;2024-02-16T05:20:25;4.65;;;2.75;;
7444;SDS011;3764;48.126;11.594;2024-02-16T05:22:53;3.30;;;2.50;;
7444;SDS011;3764;48.126;11.594;2024-02-16T05:25:20;5.72;;;2.75;;
7444;SDS011;3764;48.126;11.594;2024-02-16T05:27:47;4.25;;;2.92;;
7444;SDS011;3764;48.126;11.594;2024-02-16T05:30:15;3.17;;;2.95;;
7444;SDS011;3764;48.126;11.594;2024-02-16T05:32:43;3.58;;;3.28;;
7444;SDS011;3764;48.126;11.594;2024-02-16T05:35:11;7.05;;;3.63;;
7444;SDS011;3764;48.126;11.594;2024-02-16T05:37:40;5.78;;;3.20;;
7444;SDS011;3764;48.126;11.594;2024-02-16T05:40:09;2.90;;;2.70;;
7444;SDS011;3764;48.126;11.594;2024-02-16T05:42:47;4.30;;;2.90;;
7444;SDS011;3764;48.126;11.594;2024-02-16T05:45:14;5.32;;;3.17;;
7444;SDS011;3764;48.126;11.594;2024-02-16T05:47:44;7.18;;;2.60;;
7444;SDS011;3764;48.126;11.594;2024-02-16T05:50:12;3.60;;;2.75;;
7444;SDS011;3764;48.126;11.594;2024-02-16T05:52:40;3.42;;;2.75;;
7444;SDS011;3764;48.126;11.594;2024-02-16T05:55:08;3.00;;;2.45;;
7444;SDS011;3764;48.126;11.594;2024-02-16T05:57:36;3.70;;;3.35;;
7444;SDS011;3764;48.126;11.594;2024-02-16T06:00:04;2.92;;;2.55;;
7444;SDS011;3764;48.126;11.594;2024-02-16T06:02:34;3.10;;;2.80;;
7444;SDS011;3764;48.126;11.594;2024-02-16T06:05:03;5.07;;;3.90;;
7444;SDS011;3764;48.126;11.594;2024-02-16T06:07:31;3.05;;;2.50;;
7444;SDS011;3764;48.126;11.594;2024-02-16T06:09:58;4.00;;;3.00;;
7444;SDS011;3764;48.126;11.594;2024-02-16T06:12:29;5.00;;;2.42;;
7444;SDS011;3764;48.126;11.594;2024-02-16T06:14:57;2.80;;;2.30;;
7444;SDS011;3764;48.126;11.594;2024-02-16T06:17:24;3.50;;;3.20;;
7444;SDS011;3764;48.126;11.594;2024-02-16T06:19:51;5.97;;;3.72;;
7444;SDS011;3764;48.126;11.594;2024-02-16T06:22:20;5.35;;;2.97;;
7444;SDS011;3764;48.126;11.594;2024-02-16T06:24:48;3.40;;;2.90;;
7444;SDS011;3764;48.126;11.594;2024-02-16T06:27:15;3.70;;;2.92;;
7444;SDS011;3764;48.126;11.594;2024-02-16T06:29:42;3.97;;;2.95;;
7444;SDS011;3764;48.126;11.594;2024-02-16T06:32:10;4.13;;;2.95;;
7444;SDS011;3764;48.126;11.594;2024-02-16T06:34:37;5.07;;;2.53;;
7444;SDS011;3764;48.126;11.594;2024-02-16T06:37:05;7.53;;;2.95;;
7444;SDS011;3764;48.126;11.594;2024-02-16T06:39:34;9.82;;;2.78;;
7444;SDS011;3764;48.126;11.594;2024-02-16T06:42:01;5.00;;;3.08;;
7444;SDS011;3764;48.126;11.594;2024-02-16T06:44:28;2.75;;;2.22;;
7444;SDS011;3764;48.126;11.594;2024-02-16T06:46:56;3.67;;;2.40;;
7444;SDS011;3764;48.126;11.594;2024-02-16T06:49:23;4.43;;;2.42;;
7444;SDS011;3764;48.126;11.594;2024-02-16T06:51:50;3.22;;;2.90;;
7444;SDS011;3764;48.126;11.594;2024-02-16T06:54:17;3.60;;;2.45;;
7444;SDS011;3764;48.126;11.594;2024-02-16T06:56:46;3.55;;;3.25;;
7444;SDS011;3764;48.126;11.594;2024-02-16T06:59:13;3.78;;;2.50;;
7444;SDS011;3764;48.126;11.594;2024-02-16T07:01:41;3.10;;;2.55;;
7444;SDS011;3764;48.126;11.594;2024-02-16T07:04:08;4.80;;;3.08;;
7444;SDS011;3764;48.126;11.594;2024-02-16T07:06:35;3.15;;;2.65;;
7444;SDS011;3764;48.126;11.594;2024-02-16T07:09:03;3.53;;;2.65;;
7444;SDS011;3764;48.126;11.594;2024-02-16T07:11:30;3.65;;;2.95;;
7444;SDS011;3764;48.126;11.594;2024-02-16T07:14:01;3.95;;;2.83;;
7444;SDS011;3764;48.126;11.594;2024-02-16T07:16:31;4.13;;;3.22;;
7444;SDS011;3764;48.126;11.594;2024-02-16T07:18:59;3.25;;;2.63;;
7444;SDS011;3764;48.126;11.594;2024-02-16T07:21:26;3.20;;;2.90;;
7444;SDS011;3764;48.126;11.594;2024-02-16T07:23:53;2.63;;;2.20;;
7444;SDS011;3764;48.126;11.594;2024-02-16T07:26:20;8.18;;;2.33;;
7444;SDS011;3764;48.126;11.594;2024-02-16T07:28:47;2.45;;;2.17;;
7444;SDS011;3764;48.126;11.594;2024-02-16T07:31:16;9.70;;;3.25;;
7444;SDS011;3764;48.126;11.594;2024-02-16T07:33:43;4.07;;;2.67;;
7444;SDS011;3764;48.126;11.594;2024-02-16T07:36:11;8.15;;;3.35;;
7444;SDS011;3764;48.126;11.594;2024-02-16T07:38:39;6.47;;;3.10;;
7444;SDS011;3764;48.126;11.594;2024-02-16T07:41:06;4.22;;;3.58;;
7444;SDS011;3764;48.126;11.594;2024-02-16T07:43:34;4.63;;;3.33;;
7444;SDS011;3764;48.126;11.594;2024-02-16T07:46:01;3.88;;;3.05;;
7444;SDS011;3764;48.126;11.594;2024-02-16T07:48:31;5.95;;;3.00;;
7444;SDS011;3764;48.126;11.594;2024-02-16T07:50:58;3.83;;;2.60;;
7444;SDS011;3764;48.126;11.594;2024-02-16T07:53:27;4.57;;;2.72;;
7444;SDS011;3764;48.126;11.594;2024-02-16T07:55:55;4.03;;;2.55;;
7444;SDS011;3764;48.126;11.594;2024-02-16T07:58:23;5.40;;;2.80;;
7444;SDS011;3764;48.126;11.594;2024-02-16T08:00:50;3.55;;;2.22;;
7444;SDS011;3764;48.126;11.594;2024-02-16T08:03:19;6.75;;;3.17;;
7444;SDS011;3764;48.126;11.594;2024-02-16T08:05:48;5.85;;;3.65;;
7444;SDS011;3764;48.126;11.594;2024-02-16T08:08:16;5.60;;;3.38;;
7444;SDS011;3764;48.126;11.594;2024-02-16T08:10:43;10.90;;;4.57;;
7444;SDS011;3764;48.126;11.594;2024-02-16T08:13:10;10.20;;;5.10;;
7444;SDS011;3764;48.126;11.594;2024-02-16T08:15:37;10.05;;;5.70;;
7444;SDS011;3764;48.126;11.594;2024-02-16T08:18:05;16.02;;;5.15;;
7444;SDS011;3764;48.126;11.594;2024-02-16T08:20:32;12.10;;;4.60;;
7444;SDS011;3764;48.126;11.594;2024-02-16T08:23:01;7.28;;;3.80;;
7444;SDS011;3764;48.126;11.594;2024-02-16T08:25:29;18.33;;;9.82;;
7444;SDS011;3764;48.126;11.594;2024-02-16T08:27:58;10.20;;;5.43;;
7444;SDS011;3764;48.126;11.594;2024-02-16T08:30:25;8.18;;;4.28;;
7444;SDS011;3764;48.126;11.594;2024-02-16T08:32:53;6.93;;;4.15;;
7444;SDS011;3764;48.126;11.594;2024-02-16T08:35:20;3.90;;;3.22;;
7444;SDS011;3764;48.126;11.594;2024-02-16T08:37:48;6.05;;;3.80;;
7444;SDS011;3764;48.126;11.594;2024-02-16T08:40:16;7.97;;;2.88;;
7444;SDS011;3764;48.126;11.594;2024-02-16T08:42:43;4.10;;;2.88;;
7444;SDS011;3764;48.126;11.594;2024-02-16T08:45:12;2.97;;;2.40;;
7444;SDS011;3764;48.126;11.594;2024-02-16T08:47:42;5.28;;;2.80;;
7444;SDS011;3764;48.126;11.594;2024-02-16T08:50:09;3.50;;;2.55;;
7444;SDS011;3764;48.126;11.594;2024-02-16T08:52:36;4.43;;;2.45;;
7444;SDS011;3764;48.126;11.594;2024-02-16T08:55:04;3.55;;;2.67;;
7444;SDS011;3764;48.126;11.594;2024-02-16T08:57:33;4.10;;;3.30;;
7444;SDS011;3764;48.126;11.594;2024-02-16T09:00:00;2.70;;;2.25;;
7444;SDS011;3764;48.126;11.594;2024-02-16T09:02:28;5.07;;;2.75;;
7444;SDS011;3764;48.126;11.594;2024-02-16T09:04:56;3.53;;;2.35;;
7444;SDS011;3764;48.126;11.594;2024-02-16T09:07:23;3.15;;;1.95;;
7444;SDS011;3764;48.126;11.594;2024-02-16T09:09:51;1.92;;;1.52;;
7444;SDS011;3764;48.126;11.594;2024-02-16T09:12:18;2.85;;;2.20;;
7444;SDS011;3764;48.126;11.594;2024-02-16T09:14:47;3.17;;;2.08;;
7444;SDS011;3764;48.126;11.594;2024-02-16T09:17:14;2.50;;;1.77;;
7444;SDS011;3764;48.126;11.594;2024-02-16T09:19:41;4.47;;;2.40;;
7444;SDS011;3764;48.126;11.594;2024-02-16T09:22:08;7.53;;;2.60;;
7444;SDS011;3764;48.126;11.594;2024-02-16T09:24:36;3.47;;;2.15;;
7444;SDS011;3764;48.126;11.594;2024-02-16T09:27:03;4.22;;;2.10;;
7444;SDS011;3764;48.126;11.594;2024-02-16T09:29:31;2.38;;;1.80;;
7444;SDS011;3764;48.126;11.594;2024-02-16T09:32:00;2.78;;;1.98;;
7444;SDS011;3764;48.126;11.594;2024-02-16T09:34:27;4.03;;;2.30;;
7444;SDS011;3764;48.126;11.594;2024-02-16T09:36:55;4.50;;;2.78;;
7444;SDS011;3764;48.126;11.594;2024-02-16T09:39:22;4.82;;;2.85;;
7444;SDS011;3764;48.126;11.594;2024-02-16T09:41:50;3.17;;;2.10;;
7444;SDS011;3764;48.126;11.594;2024-02-16T09:44:18;4.82;;;2.20;;
7444;SDS011;3764;48.126;11.594;2024-02-16T09:46:48;2.85;;;2.03;;
7444;SDS011;3764;48.126;11.594;2024-02-16T09:49:17;2.10;;;1.90;;
7444;SDS011;3764;48.126;11.594;2024-02-16T09:51:44;2.72;;;1.70;;
7444;SDS011;3764;48.126;11.594;2024-02-16T09:54:12;3.70;;;1.80;;
7444;SDS011;3764;48.126;11.594;2024-02-16T09:56:39;2.95;;;1.98;;
7444;SDS011;3764;48.126;11.594;2024-02-16T09:59:07;3.00;;;1.90;;
7444;SDS011;3764;48.126;11.594;2024-02-16T10:01:34;4.68;;;2.50;;
7444;SDS011;3764;48.126;11.594;2024-02-16T10:04:05;4.00;;;1.90;;
7444;SDS011;3764;48.126;11.594;2024-02-16T10:06:39;3.03;;;2.33;;
7444;SDS011;3764;48.126;11.594;2024-02-16T10:09:21;2.22;;;1.88;;
7444;SDS011;3764;48.126;11.594;2024-02-16T10:11:49;2.70;;;1.75;;
7444;SDS011;3764;48.126;11.594;2024-02-16T10:14:17;3.38;;;2.30;;
7444;SDS011;3764;48.126;11.594;2024-02-16T10:16:44;7.20;;;1.60;;
7444;SDS011;3764;48.126;11.594;2024-02-16T10:19:12;2.20;;;1.58;;
7444;SDS011;3764;48.126;11.594;2024-02-16T10:21:41;2.63;;;1.75;;
7444;SDS011;3764;48.126;11.594;2024-02-16T10:24:09;2.30;;;1.70;;
7444;SDS011;3764;48.126;11.594;2024-02-16T10:26:39;2.22;;;1.75;;
7444;SDS011;3764;48.126;11.594;2024-02-16T10:29:08;1.73;;;1.30;;
7444;SDS011;3764;48.126;11.594;2024-02-16T10:31:36;2.33;;;1.50;;
7444;SDS011;3764;48.126;11.594;2024-02-16T10:34:04;3.78;;;1.60;;
7444;SDS011;3764;48.126;11.594;2024-02-16T10:36:32;2.95;;;1.73;;
7444;SDS011;3764;48.126;11.594;2024-02-16T10:39:02;3.17;;;1.85;;
7444;SDS011;3764;48.126;11.594;2024-02-16T10:41:32;3.08;;;2.20;;
7444;SDS011;3764;48.126;11.594;2024-02-16T10:44:01;2.42;;;1.40;;
7444;SDS011;3764;48.126;11.594;2024-02-16T10:46:29;1.48;;;1.05;;
7444;SDS011;3764;48.126;11.594;2024-02-16T10:48:56;4.18;;;1.40;;
7444;SDS011;3764;48.126;11.594;2024-02-16T10:51:26;1.40;;;1.00;;
7444;SDS011;3764;48.126;11.594;2024-02-16T10:53:57;1.73;;;1.17;;
7444;SDS011;3764;48.126;11.594;2024-02-16T10:56:33;2.42;;;1.40;;
7444;SDS011;3764;48.126;11.594;2024-02-16T10:59:02;2.10;;;1.30;;
7444;SDS011;3764;48.126;11.594;2024-02-16T11:01:33;2.67;;;1.27;;
7444;SDS011;3764;48.126;11.594;2024-02-16T11:04:04;2.13;;;1.35;;
7444;SDS011;3764;48.126;11.594;2024-02-16T11:09:29;1.50;;;1.30;;
7444;SDS011;3764;48.126;11.594;2024-02-16T11:12:00;2.00;;;1.45;;
7444;SDS011;3764;48.126;11.594;2024-02-16T11:14:35;2.60;;;1.55;;
7444;SDS011;3764;48.126;11.594;2024-02-16T11:17:07;1.83;;;1.17;;
7444;SDS011;3764;48.126;11.594;2024-02-16T11:19:35;2.58;;;1.60;;
7444;SDS011;3764;48.126;11.594;2024-02-16T11:22:03;3.35;;;1.58;;
7444;SDS011;3764;48.126;11.594;2024-02-16T11:24:35;1.90;;;1.40;;
7444;SDS011;3764;48.126;11.594;2024-02-16T11:27:03;3.20;;;1.60;;
7444;SDS011;3764;48.126;11.594;2024-02-16T11:29:31;2.40;;;1.70;;
7444;SDS011;3764;48.126;11.594;2024-02-16T11:32:00;2.25;;;1.60;;
7444;SDS011;3764;48.126;11.594;2024-02-16T11:34:27;2.75;;;1.60;;
7444;SDS011;3764;48.126;11.594;2024-02-16T11:36:55;2.90;;;1.45;;
7444;SDS011;3764;48.126;11.594;2024-02-16T11:39:23;3.75;;;2.05;;
7444;SDS011;3764;48.126;11.594;2024-02-16T11:42:00;2.42;;;1.65;;
7444;SDS011;3764;48.126;11.594;2024-02-16T11:44:28;2.92;;;1.25;;
7444;SDS011;3764;48.126;11.594;2024-02-16T11:46:57;3.25;;;2.15;;
7444;SDS011;3764;48.126;11.594;2024-02-16T11:49:24;1.73;;;1.17;;
7444;SDS011;3764;48.126;11.594;2024-02-16T11:51:52;3.22;;;2.03;;
7444;SDS011;3764;48.126;11.594;2024-02-16T11:54:19;2.15;;;1.60;;
7444;SDS011;3764;48.126;11.594;2024-02-16T11:56:46;3.58;;;1.90;;
7444;SDS011;3764;48.126;11.594;2024-02-16T11:59:18;6.07;;;1.73;;
7444;SDS011;3764;48.126;11.594;2024-02-16T12:01:49;8.52;;;1.73;;
7444;SDS011;3764;48.126;11.594;2024-02-16T12:04:21;4.15;;;2.70;;
7444;SDS011;3764;48.126;11.594;2024-02-16T12:06:53;3.70;;;1.70;;
7444;SDS011;3764;48.126;11.594;2024-02-16T12:09:22;2.42;;;1.60;;
7444;SDS011;3764;48.126;11.594;2024-02-16T12:11:50;3.55;;;2.00;;
7444;SDS011;3764;48.126;11.594;2024-02-16T12:14:21;2.25;;;1.80;;
7444;SDS011;3764;48.126;11.594;2024-02-16T12:16:49;2.05;;;1.23;;
7444;SDS011;3764;48.126;11.594;2024-02-16T12:19:18;3.63;;;2.00;;
7444;SDS011;3764;48.126;11.594;2024-02-16T12:21:48;3.92;;;3.30;;
7444;SDS011;3764;48.126;11.594;2024-02-16T12:24:16;2.83;;;2.20;;
7444;SDS011;3764;48.126;11.594;2024-02-16T12:26:43;5.43;;;1.98;;
7444;SDS011;3764;48.126;11.594;2024-02-16T12:29:11;3.70;;;2.47;;
7444;SDS011;3764;48.126;11.594;2024-02-16T12:31:40;3.25;;;2.05;;
7444;SDS011;3764;48.126;11.594;2024-02-16T12:34:08;1.77;;;1.50;;
7444;SDS011;3764;48.126;11.594;2024-02-16T12:36:36;2.73;;;1.90;;
7444;SDS011;3764;48.126;11.594;2024-02-16T12:39:05;3.15;;;1.70;;
7444;SDS011;3764;48.126;11.594;2024-02-16T12:41:34;4.00;;;1.80;;
7444;SDS011;3764;48.126;11.594;2024-02-16T12:44:02;3.88;;;1.60;;
7444;SDS011;3764;48.126;11.594;2024-02-16T12:46:30;3.42;;;1.73;;
7444;SDS011;3764;48.126;11.594;2024-02-16T12:48:59;5.43;;;2.28;;
7444;SDS011;3764;48.126;11.594;2024-02-16T12:51:26;2.92;;;1.75;;
7444;SDS011;3764;48.126;11.594;2024-02-16T12:53:54;4.05;;;2.28;;
7444;SDS011;3764;48.126;11.594;2024-02-16T12:56:21;2.15;;;1.50;;
7444;SDS011;3764;48.126;11.594;2024-02-16T12:58:48;6.15;;;3.05;;
7444;SDS011;3764;48.126;11.594;2024-02-16T13:01:15;1.88;;;1.50;;
7444;SDS011;3764;48.126;11.594;2024-02-16T13:03:43;4.43;;;1.65;;
7444;SDS011;3764;48.126;11.594;2024-02-16T13:06:12;3.33;;;1.95;;
7444;SDS011;3764;48.126;11.594;2024-02-16T13:08:39;4.50;;;1.73;;
7444;SDS011;3764;48.126;11.594;2024-02-16T13:11:06;2.42;;;1.88;;
7444;SDS011;3764;48.126;11.594;2024-02-16T13:13:33;4.65;;;2.00;;
7444;SDS011;3764;48.126;11.594;2024-02-16T13:16:01;2.20;;;1.60;;
7444;SDS011;3764;48.126;11.594;2024-02-16T13:18:28;3.58;;;1.70;;
7444;SDS011;3764;48.126;11.594;2024-02-16T13:20:56;3.00;;;2.10;;
7444;SDS011;3764;48.126;11.594;2024-02-16T13:23:24;4.95;;;3.55;;
7444;SDS011;3764;48.126;11.594;2024-02-16T13:25:54;2.72;;;1.90;;
7444;SDS011;3764;48.126;11.594;2024-02-16T13:28:21;2.78;;;1.80;;
7444;SDS011;3764;48.126;11.594;2024-02-16T13:30:48;4.00;;;2.40;;
7444;SDS011;3764;48.126;11.594;2024-02-16T13:33:16;3.38;;;1.65;;
7444;SDS011;3764;48.126;11.594;2024-02-16T13:35:43;2.60;;;1.58;;
7444;SDS011;3764;48.126;11.594;2024-02-16T13:38:10;3.58;;;1.80;;
7444;SDS011;3764;48.126;11.594;2024-02-16T13:40:40;4.35;;;1.75;;
7444;SDS011;3764;48.126;11.594;2024-02-16T13:43:08;3.95;;;1.98;;
7444;SDS011;3764;48.126;11.594;2024-02-16T13:45:47;5.72;;;2.08;;
7444;SDS011;3764;48.126;11.594;2024-02-16T13:48:15;4.90;;;1.80;;
7444;SDS011;3764;48.126;11.594;2024-02-16T13:50:43;3.92;;;2.17;;
7444;SDS011;3764;48.126;11.594;2024-02-16T13:53:11;3.35;;;2.00;;
7444;SDS011;3764;48.126;11.594;2024-02-16T13:55:41;2.90;;;2.05;;
7444;SDS011;3764;48.126;11.594;2024-02-16T13:58:09;3.45;;;1.50;;
7444;SDS011;3764;48.126;11.594;2024-02-16T14:00:36;1.80;;;1.63;;
7444;SDS011;3764;48.126;11.594;2024-02-16T14:03:04;5.20;;;2.25;;
7444;SDS011;3764;48.126;11.594;2024-02-16T14:05:34;3.72;;;2.28;;
7444;SDS011;3764;48.126;11.594;2024-02-16T14:08:01;4.50;;;1.70;;
7444;SDS011;3764;48.126;11.594;2024-02-16T14:10:30;3.53;;;2.47;;
7444;SDS011;3764;48.126;11.594;2024-02-16T14:12:59;5.32;;;2.22;;
7444;SDS011;3764;48.126;11.594;2024-02-16T14:15:26;6.13;;;2.20;;
7444;SDS011;3764;48.126;11.594;2024-02-16T14:17:53;4.63;;;2.17;;
7444;SDS011;3764;48.126;11.594;2024-02-16T14:20:20;6.95;;;2.53;;
7444;SDS011;3764;48.126;11.594;2024-02-16T14:22:48;4.40;;;2.10;;
7444;SDS011;3764;48.126;11.594;2024-02-16T14:25:15;3.28;;;2.25;;
7444;SDS011;3764;48.126;11.594;2024-02-16T14:27:43;4.00;;;2.22;;
7444;SDS011;3764;48.126;11.594;2024-02-16T14:30:13;4.00;;;2.45;;
7444;SDS011;3764;48.126;11.594;2024-02-16T14:32:40;5.72;;;4.35;;
7444;SDS011;3764;48.126;11.594;2024-02-16T14:35:08;2.92;;;2.47;;
7444;SDS011;3764;48.126;11.594;2024-02-16T14:37:36;4.70;;;2.90;;
7444;SDS011;3764;48.126;11.594;2024-02-16T14:40:04;6.63;;;2.72;;
7444;SDS011;3764;48.126;11.594;2024-02-16T14:42:35;4.93;;;3.05;;
7444;SDS011;3764;48.126;11.594;2024-02-16T14:45:03;3.47;;;2.28;;
7444;SDS011;3764;48.126;11.594;2024-02-16T14:47:35;4.28;;;2.88;;
7444;SDS011;3764;48.126;11.594;2024-02-16T14:50:03;2.20;;;2.00;;
7444;SDS011;3764;48.126;11.594;2024-02-16T14:52:33;5.72;;;3.10;;
7444;SDS011;3764;48.126;11.594;2024-02-16T14:55:00;3.15;;;2.15;;
7444;SDS011;3764;48.126;11.594;2024-02-16T14:57:28;6.95;;;3.00;;
7444;SDS011;3764;48.126;11.594;2024-02-16T14:59:55;6.63;;;2.50;;
7444;SDS011;3764;48.126;11.594;2024-02-16T15:02:22;3.83;;;2.08;;
7444;SDS011;3764;48.126;11.594;2024-02-16T15:04:52;4.28;;;2.88;;
7444;SDS011;3764;48.126;11.594;2024-02-16T15:07:19;4.13;;;2.15;;